createdAt,value
2024-01-15T04:54:01.999Z,2.46
2024-01-15T04:57:05.070Z,2.70
2024-01-15T05:00:08.265Z,2.81
2024-01-15T05:03:11.013Z,2.82
2024-01-15T05:06:13.724Z,2.75
2024-01-15T05:09:16.344Z,2.71
2024-01-15T05:12:18.941Z,2.82
2024-01-15T05:15:21.523Z,2.61
2024-01-15T05:18:24.200Z,2.67
2024-01-15T05:21:26.859Z,2.62
2024-01-15T05:24:29.390Z,2.65
2024-01-15T05:27:31.882Z,2.77
2024-01-15T05:30:34.532Z,2.81
2024-01-15T05:33:37.206Z,2.96
2024-01-15T05:36:40.186Z,3.17
2024-01-15T05:39:42.695Z,3.22
2024-01-15T05:42:45.220Z,3.22
2024-01-15T05:45:47.897Z,3.23
2024-01-15T05:48:50.556Z,3.08
2024-01-15T05:51:53.227Z,2.98
2024-01-15T05:54:55.799Z,3.12
2024-01-15T05:57:58.930Z,3.19
2024-01-15T06:01:01.662Z,3.24
2024-01-15T06:04:04.634Z,3.30
2024-01-15T06:07:07.308Z,3.34
2024-01-15T06:10:10.390Z,3.35
2024-01-15T06:13:12.938Z,3.28
2024-01-15T06:16:17.007Z,3.13
2024-01-15T06:19:19.600Z,3.17
2024-01-15T06:22:22.162Z,3.08
2024-01-15T06:25:24.652Z,2.79
2024-01-15T06:28:27.179Z,2.64
2024-01-15T06:31:30.050Z,2.61
2024-01-15T06:34:32.585Z,3.08
2024-01-15T06:37:35.170Z,3.15
2024-01-15T06:40:37.694Z,2.84
2024-01-15T06:43:40.375Z,2.89
2024-01-15T06:46:47.761Z,3.10
2024-01-15T06:49:51.880Z,3.15
2024-01-15T06:52:54.499Z,3.16
2024-01-15T06:55:57.168Z,3.21
2024-01-15T06:59:00.028Z,3.24
2024-01-15T07:02:02.672Z,3.29
2024-01-15T07:05:06.446Z,3.34
2024-01-15T07:08:09.156Z,3.40
2024-01-15T07:11:11.802Z,3.51
2024-01-15T07:14:14.436Z,3.59
2024-01-15T07:17:16.998Z,3.71
2024-01-15T07:20:20.694Z,3.82
2024-01-15T07:23:23.212Z,3.88
2024-01-15T07:26:26.519Z,3.86
2024-01-15T07:29:30.128Z,3.98
2024-01-15T07:32:32.958Z,3.96
2024-01-15T07:35:35.540Z,4.05
2024-01-15T07:38:38.508Z,4.07
2024-01-15T07:41:41.064Z,3.96
2024-01-15T07:44:43.565Z,3.96
2024-01-15T07:47:50.332Z,4.07
2024-01-15T07:50:55.759Z,4.04
2024-01-15T07:53:58.635Z,4.11
2024-01-15T08:00:34.461Z,4.37
2024-01-15T08:03:45.654Z,4.56
2024-01-15T08:07:38.230Z,4.87
2024-01-15T08:11:34.422Z,5.21
2024-01-15T08:15:09.261Z,5.12
2024-01-15T08:18:14.696Z,5.31
2024-01-15T08:21:17.482Z,5.29
2024-01-15T08:24:20.216Z,5.12
2024-01-15T08:27:22.784Z,5.02
2024-01-15T08:30:29.564Z,4.85
2024-01-15T08:33:34.871Z,4.79
2024-01-15T08:36:37.869Z,4.89
2024-01-15T08:39:40.419Z,4.94
2024-01-15T08:42:44.691Z,5.45
2024-01-15T08:46:00.861Z,5.00
2024-01-15T08:49:07.271Z,5.03
2024-01-15T08:52:22.356Z,5.33
2024-01-15T08:55:25.173Z,5.32
2024-01-15T08:59:03.723Z,5.42
2024-01-15T09:02:20.578Z,5.69
2024-01-15T09:05:32.471Z,5.71
2024-01-15T09:08:35.945Z,5.89
2024-01-15T09:11:38.605Z,6.02
2024-01-15T09:14:41.616Z,5.88
2024-01-15T09:17:45.023Z,5.75
2024-01-15T09:20:47.568Z,5.44
2024-01-15T09:23:50.203Z,4.96
2024-01-15T09:26:52.830Z,4.89
2024-01-15T09:29:56.335Z,4.81
2024-01-15T09:32:59.786Z,4.55
2024-01-15T09:36:07.647Z,4.59
2024-01-15T09:39:12.354Z,4.50
2024-01-15T09:42:21.063Z,4.23
2024-01-15T09:45:27.368Z,3.85
2024-01-15T09:48:35.197Z,3.53
2024-01-15T09:51:38.529Z,3.31
2024-01-15T09:54:43.515Z,3.16
2024-01-15T09:57:47.794Z,2.90
2024-01-15T10:00:51.637Z,2.65
2024-01-15T10:03:56.163Z,2.51
2024-01-15T10:06:59.292Z,2.50
2024-01-15T10:10:01.924Z,2.47
2024-01-15T10:13:05.523Z,2.49
2024-01-15T10:16:08.025Z,2.75
2024-01-15T10:19:14.922Z,2.52
2024-01-15T10:22:19.393Z,2.38
2024-01-15T10:25:27.034Z,2.39
2024-01-15T10:28:31.454Z,2.31
2024-01-15T10:31:34.334Z,2.17
2024-01-15T10:34:53.875Z,1.95
2024-01-15T10:37:57.558Z,1.70
2024-01-15T10:41:00.124Z,1.76
2024-01-15T10:44:05.076Z,1.97
2024-01-15T10:47:08.099Z,2.62
2024-01-15T10:50:11.582Z,2.55
2024-01-15T10:53:16.707Z,2.24
2024-01-15T10:56:20.028Z,2.57
2024-01-15T10:59:28.146Z,2.19
2024-01-15T11:02:31.281Z,2.29
2024-01-15T11:05:46.009Z,2.10
2024-01-15T11:08:54.588Z,1.98
2024-01-15T11:12:10.193Z,1.94
2024-01-15T11:15:21.756Z,2.00
2024-01-15T11:18:24.683Z,2.14
2024-01-15T11:21:28.856Z,2.26
2024-01-15T11:24:42.626Z,2.10
2024-01-15T11:27:49.146Z,2.09
2024-01-15T11:31:14.446Z,2.20
2024-01-15T11:34:23.262Z,2.14
2024-01-15T11:37:55.754Z,2.35
2024-01-15T11:41:03.395Z,2.37
2024-01-15T11:44:06.544Z,2.39
2024-01-15T11:47:16.719Z,2.33
2024-01-15T11:50:19.782Z,2.53
2024-01-15T11:53:30.052Z,2.65
2024-01-15T11:56:32.743Z,2.73
2024-01-15T11:59:35.809Z,2.74
2024-01-15T12:02:40.204Z,2.71
2024-01-15T12:05:45.726Z,2.66
2024-01-15T12:08:48.345Z,2.73
2024-01-15T12:12:01.371Z,2.76
2024-01-15T12:15:04.845Z,2.74
2024-01-15T12:18:09.319Z,2.80
2024-01-15T12:21:11.972Z,2.71
2024-01-15T12:24:14.634Z,2.69
2024-01-15T12:27:24.692Z,2.73
2024-01-15T12:30:35.380Z,2.83
2024-01-15T12:33:38.325Z,2.95
2024-01-15T12:36:41.998Z,3.15
2024-01-15T12:39:45.344Z,3.26
2024-01-15T12:42:48.143Z,3.41
2024-01-15T12:45:52.071Z,3.38
2024-01-15T12:48:54.714Z,3.06
2024-01-15T12:52:34.746Z,3.11
2024-01-15T12:55:37.956Z,3.07
2024-01-15T12:58:40.863Z,3.05
2024-01-15T13:10:06.573Z,3.24
2024-01-15T13:13:57.060Z,3.26
2024-01-15T13:17:04.143Z,3.31
2024-01-15T13:20:11.062Z,3.37
2024-01-15T13:23:14.020Z,3.70
2024-01-15T13:26:16.621Z,3.95
2024-01-15T13:29:19.405Z,3.95
2024-01-15T13:32:29.189Z,3.55
2024-01-15T13:35:32.209Z,4.07
2024-01-15T13:38:37.476Z,3.64
2024-01-15T13:41:40.094Z,4.07
2024-01-15T13:44:43.829Z,4.07
2024-01-15T13:47:46.482Z,4.12
2024-01-15T13:50:49.071Z,3.83
2024-01-15T13:53:52.069Z,3.59
2024-01-15T13:56:54.635Z,3.56
2024-01-15T13:59:57.198Z,3.61
2024-01-15T14:02:59.779Z,3.61
2024-01-15T14:06:09.808Z,3.65
2024-01-15T14:09:15.584Z,4.11
2024-01-15T14:12:18.194Z,4.28
2024-01-15T14:15:22.832Z,4.21
2024-01-15T14:18:25.539Z,3.71
2024-01-15T14:21:28.185Z,3.50
2024-01-15T14:24:30.786Z,3.49
2024-01-15T14:27:34.057Z,3.88
2024-01-15T14:30:36.807Z,3.73
2024-01-15T14:33:40.808Z,3.65
2024-01-15T14:36:44.037Z,2.99
2024-01-15T14:39:47.156Z,3.18
2024-01-15T14:42:50.157Z,3.07
2024-01-15T14:45:52.778Z,3.08
2024-01-15T14:48:55.666Z,3.10
2024-01-15T14:51:58.857Z,3.16
2024-01-15T14:55:02.285Z,3.20
2024-01-15T14:58:05.826Z,3.19
2024-01-15T15:01:08.572Z,3.29
2024-01-15T15:04:11.857Z,3.35
2024-01-15T15:07:14.571Z,3.36
2024-01-15T15:10:17.302Z,3.32
2024-01-15T15:13:29.500Z,3.40
2024-01-15T15:16:36.779Z,3.50
2024-01-15T15:19:40.958Z,3.48
2024-01-15T15:22:44.112Z,3.49
2024-01-15T15:25:46.716Z,3.41
2024-01-15T15:28:50.182Z,3.45
2024-01-15T15:31:53.121Z,3.41
2024-01-15T15:34:56.156Z,3.07
2024-01-15T15:37:58.758Z,3.08
2024-01-15T15:41:02.102Z,3.10
2024-01-15T15:44:05.167Z,3.15
2024-01-15T15:47:07.981Z,3.02
2024-01-15T15:50:10.992Z,3.08
2024-01-15T15:53:14.038Z,3.09
2024-01-15T15:56:16.793Z,3.13
2024-01-15T15:59:19.910Z,3.21
2024-01-15T16:02:22.577Z,3.24
2024-01-15T16:05:31.361Z,3.30
2024-01-15T16:08:40.413Z,3.31
2024-01-15T16:11:43.019Z,3.09
2024-01-15T16:14:45.599Z,2.89
2024-01-15T16:23:17.128Z,2.97
2024-01-15T16:23:35.527Z,2.95
2024-01-15T16:24:42.500Z,2.96
2024-01-15T16:27:53.377Z,3.06
2024-01-15T16:31:02.188Z,3.06
2024-01-15T16:34:09.759Z,2.99
2024-01-15T16:37:14.247Z,2.53
2024-01-15T16:40:16.961Z,2.54
2024-01-15T16:43:19.679Z,2.55
2024-01-15T16:46:23.022Z,2.55
2024-01-15T16:49:25.653Z,2.52
2024-01-15T16:52:28.233Z,2.60
2024-01-15T16:55:31.025Z,2.70
2024-01-15T16:58:33.836Z,2.67
2024-01-15T17:01:36.631Z,2.45
2024-01-15T17:04:39.687Z,2.29
2024-01-15T17:07:42.622Z,2.35
2024-01-15T17:10:45.549Z,2.29
2024-01-15T17:13:48.379Z,2.14
2024-01-15T17:16:51.221Z,2.35
2024-01-15T17:19:55.080Z,2.38
2024-01-15T17:22:59.228Z,2.33
2024-01-15T17:26:03.311Z,2.27
2024-01-15T17:29:06.278Z,2.20
2024-01-15T17:32:09.121Z,2.15
2024-01-15T17:35:12.053Z,2.02
2024-01-15T17:38:15.232Z,2.12
2024-01-15T17:41:18.167Z,2.00
2024-01-15T17:44:20.730Z,1.74
2024-01-15T17:47:23.588Z,1.68
2024-01-15T17:50:26.148Z,1.48
2024-01-15T17:53:29.032Z,1.56
2024-01-15T17:56:32.206Z,1.64
2024-01-15T17:59:35.385Z,1.58
2024-01-15T18:02:39.692Z,1.78
2024-01-15T18:05:42.537Z,1.66
2024-01-15T18:08:45.643Z,2.05
2024-01-15T18:11:48.377Z,2.19
2024-01-15T18:14:51.116Z,2.17
2024-01-15T18:17:54.485Z,2.38
2024-01-15T18:20:57.372Z,2.22
2024-01-15T18:24:00.189Z,1.99
2024-01-15T18:27:04.679Z,2.10
2024-01-15T18:30:07.871Z,2.27
2024-01-15T18:33:10.688Z,2.46
2024-01-15T18:36:13.556Z,2.45
2024-01-15T18:39:17.991Z,2.39
2024-01-15T18:42:20.813Z,2.45
2024-01-15T18:45:23.470Z,2.68
2024-01-15T18:48:26.171Z,2.59
2024-01-15T18:51:28.900Z,2.31
2024-01-15T18:54:31.701Z,2.22
2024-01-15T18:57:34.332Z,2.18
2024-01-15T19:00:38.091Z,2.35
2024-01-15T19:03:41.142Z,2.42
2024-01-15T19:06:45.461Z,2.55
2024-01-15T19:09:49.393Z,2.46
2024-01-15T19:12:52.013Z,2.62
2024-01-15T19:15:55.243Z,2.51
2024-01-15T19:18:57.941Z,2.44
2024-01-15T19:22:00.564Z,2.60
2024-01-15T19:25:03.376Z,2.54
2024-01-15T19:28:06.998Z,2.62
2024-01-15T19:31:10.395Z,2.60
